Time;durP1;ratioP1;P1;durP2;ratioP2;P2;SDS_P1;SDS_P2;PMS_P1;PMS_P2;Temp;Humidity;BMP_temperature;BMP_pressure;BME280_temperature;BME280_humidity;BME280_pressure;Samples;Min_cycle;Max_cycle;Signal;HPM_P1;HPM_P2
2022/10/07 00:00:49;;;;;;;6.32;3.92;;;15.80;82.00;;;;;;5015481;28;20029;-60
2022/10/07 00:03:14;;;;;;;6.53;4.15;;;15.80;82.00;;;;;;5015930;28;20041;-61
2022/10/07 00:05:40;;;;;;;6.40;4.13;;;15.80;82.00;;;;;;5016958;28;20100;-59
2022/10/07 00:08:06;;;;;;;7.90;4.43;;;15.80;82.00;;;;;;5017708;28;20045;-61
2022/10/07 00:10:39;;;;;;;8.00;4.25;;;15.80;82.00;;;;;;5017938;28;20037;-59
2022/10/07 00:13:05;;;;;;;4.25;3.80;;;15.80;82.10;;;;;;5017427;28;20056;-58
2022/10/07 00:15:31;;;;;;;6.05;4.18;;;15.80;82.00;;;;;;5018260;28;20029;-59
2022/10/07 00:17:56;;;;;;;4.72;3.78;;;15.80;82.00;;;;;;5014999;28;20044;-59
2022/10/07 00:20:22;;;;;;;4.85;3.70;;;15.90;82.00;;;;;;5018144;28;20033;-60
2022/10/07 00:22:47;;;;;;;6.03;4.20;;;15.90;82.00;;;;;;5013946;28;20351;-61
2022/10/07 00:25:13;;;;;;;4.78;3.92;;;15.90;82.90;;;;;;5015834;28;20410;-59
2022/10/07 00:27:38;;;;;;;4.97;4.18;;;15.90;82.00;;;;;;5015298;28;20033;-61
2022/10/07 00:30:04;;;;;;;5.65;3.95;;;15.90;81.90;;;;;;5018895;28;20052;-59
2022/10/07 00:32:30;;;;;;;6.95;4.35;;;15.80;81.80;;;;;;5017115;28;20041;-59
2022/10/07 00:34:55;;;;;;;5.72;4.35;;;15.90;82.70;;;;;;5016760;28;20072;-60
2022/10/07 00:37:21;;;;;;;5.55;4.13;;;15.80;81.80;;;;;;5016505;28;20041;-61
2022/10/07 00:39:47;;;;;;;8.50;4.25;;;15.90;81.90;;;;;;5015734;28;20559;-59
2022/10/07 00:42:12;;;;;;;5.60;4.30;;;15.80;81.90;;;;;;5017076;28;21295;-58
2022/10/07 00:44:41;;;;;;;5.68;4.38;;;15.80;81.90;;;;;;5016822;28;20045;-59
2022/10/07 00:47:24;;;;;;;4.90;4.35;;;15.80;82.10;;;;;;5015198;28;20048;-57
2022/10/07 00:49:49;;;;;;;5.25;4.25;;;15.70;82.40;;;;;;5017341;28;20038;-59
2022/10/07 00:52:19;;;;;;;5.45;4.20;;;15.80;82.20;;;;;;5020308;28;20404;-60
2022/10/07 00:54:46;;;;;;;13.05;4.45;;;15.80;82.20;;;;;;5015676;28;20081;-60
2022/10/07 00:57:12;;;;;;;6.43;4.40;;;15.70;82.20;;;;;;5015144;28;20042;-59
2022/10/07 00:59:38;;;;;;;7.05;4.07;;;15.70;82.40;;;;;;5017299;28;20084;-60
2022/10/07 01:02:05;;;;;;;4.63;4.15;;;15.70;82.50;;;;;;5019889;28;20432;-59
2022/10/07 01:04:31;;;;;;;5.30;4.20;;;15.70;82.60;;;;;;5014537;28;20061;-59
2022/10/07 01:06:57;;;;;;;5.80;4.10;;;15.70;82.60;;;;;;5014584;28;20616;-61
2022/10/07 01:09:22;;;;;;;7.22;3.70;;;15.70;82.70;;;;;;5015074;28;20117;-60
2022/10/07 01:12:09;;;;;;;4.97;4.47;;;15.70;82.70;;;;;;5013482;28;20045;-60
2022/10/07 01:14:38;;;;;;;6.95;4.15;;;15.80;83.20;;;;;;5016030;28;20349;-59
2022/10/07 01:17:10;;;;;;;5.95;3.95;;;15.80;82.70;;;;;;5015516;28;20034;-59
2022/10/07 01:19:56;;;;;;;6.05;3.78;;;15.80;82.70;;;;;;5015817;28;20033;-59
2022/10/07 01:22:43;;;;;;;4.90;4.20;;;15.80;82.70;;;;;;5018061;28;20034;-59
2022/10/07 01:26:00;;;;;;;5.00;3.85;;;15.80;82.90;;;;;;5015156;28;20073;-59
2022/10/07 01:28:29;;;;;;;;;;;15.80;82.70;;;;;;4918180;29;20295;-61
2022/10/07 01:30:59;;;;;;;4.80;3.63;;;15.90;82.70;;;;;;4916058;29;20133;-59
2022/10/07 01:33:29;;;;;;;4.50;3.65;;;15.80;82.10;;;;;;4970950;28;20468;-60
2022/10/07 01:35:59;;;;;;;5.60;3.72;;;15.90;82.20;;;;;;5013569;28;20041;-60
2022/10/07 01:38:25;;;;;;;4.03;3.63;;;15.90;82.40;;;;;;5014270;28;20139;-60
2022/10/07 01:40:57;;;;;;;4.60;3.58;;;15.90;82.20;;;;;;5013750;28;20049;-61
2022/10/07 01:43:22;;;;;;;3.97;3.60;;;15.90;82.40;;;;;;5016743;28;20501;-59
2022/10/07 01:45:53;;;;;;;5.72;3.22;;;15.90;82.30;;;;;;5013930;28;20088;-60
2022/10/07 01:48:19;;;;;;;4.93;3.55;;;15.90;83.10;;;;;;5016613;28;20504;-60
2022/10/07 01:50:46;;;;;;;6.07;3.70;;;15.90;82.20;;;;;;5014431;28;20040;-59
2022/10/07 01:53:23;;;;;;;5.85;3.60;;;15.90;82.20;;;;;;5017111;28;20042;-60
2022/10/07 01:55:54;;;;;;;6.00;3.50;;;15.80;82.30;;;;;;5016477;28;20041;-59
2022/10/07 01:58:28;;;;;;;4.80;3.47;;;15.90;82.30;;;;;;5014316;28;20045;-60
2022/10/07 02:01:11;;;;;;;4.83;3.53;;;15.80;82.40;;;;;;5015577;28;20513;-59
2022/10/07 02:03:55;;;;;;;4.05;3.28;;;15.70;82.40;;;;;;5015645;28;20379;-59
2022/10/07 02:06:30;;;;;;;4.07;3.60;;;15.80;82.20;;;;;;5015116;28;20420;-61
2022/10/07 02:09:00;;;;;;;5.82;3.63;;;15.70;82.00;;;;;;5012772;28;20084;-61
2022/10/07 02:11:28;;;;;;;4.00;3.50;;;15.70;83.00;;;;;;5015191;28;20076;-60
2022/10/07 02:14:07;;;;;;;4.18;3.33;;;15.70;82.20;;;;;;5014266;28;20029;-59
2022/10/07 02:16:48;;;;;;;5.25;3.22;;;15.70;82.60;;;;;;5011913;28;20398;-60
2022/10/07 02:19:43;;;;;;;4.10;3.00;;;15.70;82.60;;;;;;5013371;28;20034;-60
2022/10/07 02:22:11;;;;;;;4.32;3.30;;;15.70;82.50;;;;;;5008926;28;20033;-59
2022/10/07 02:24:39;;;;;;;4.60;3.75;;;15.70;82.40;;;;;;5016568;28;20041;-60
2022/10/07 02:27:10;;;;;;;3.78;3.28;;;15.70;82.40;;;;;;5013136;28;20050;-59
2022/10/07 02:29:37;;;;;;;4.93;3.83;;;15.70;82.60;;;;;;5014623;28;20068;-60
2022/10/07 02:32:09;;;;;;;4.70;3.90;;;15.60;82.60;;;;;;5014574;28;20545;-59
2022/10/07 02:34:35;;;;;;;5.22;3.33;;;15.60;82.70;;;;;;5014735;28;20041;-60
2022/10/07 02:37:07;;;;;;;4.32;3.50;;;15.60;82.70;;;;;;5015234;28;20106;-61
2022/10/07 02:39:33;;;;;;;6.95;4.10;;;15.60;82.80;;;;;;5014819;28;20088;-59
2022/10/07 02:42:15;;;;;;;5.32;3.67;;;15.60;82.70;;;;;;5016977;28;20451;-59
2022/10/07 02:44:47;;;;;;;7.00;4.10;;;15.60;82.90;;;;;;5013925;28;20120;-58
2022/10/07 02:47:34;;;;;;;6.43;4.07;;;15.60;82.80;;;;;;5012651;28;20038;-60
2022/10/07 02:50:02;;;;;;;4.93;3.97;;;15.60;83.00;;;;;;5016535;28;20071;-60
2022/10/07 02:52:30;;;;;;;8.15;4.13;;;15.70;82.70;;;;;;5014880;28;20033;-59
2022/10/07 02:54:59;;;;;;;6.18;3.97;;;15.60;82.70;;;;;;5013895;28;20483;-59
2022/10/07 02:57:29;;;;;;;7.68;4.03;;;15.70;82.80;;;;;;5013366;28;20124;-59
2022/10/07 02:59:56;;;;;;;5.13;4.15;;;15.70;82.80;;;;;;5014524;28;20041;-60
2022/10/07 03:02:37;;;;;;;7.00;3.78;;;15.70;82.70;;;;;;5015086;28;20573;-60
2022/10/07 03:05:03;;;;;;;6.63;3.97;;;15.70;82.90;;;;;;5013155;28;20516;-59
2022/10/07 03:07:28;;;;;;;4.53;3.80;;;15.70;82.70;;;;;;5015496;28;20045;-60
2022/10/07 03:09:54;;;;;;;4.25;3.70;;;15.70;82.80;;;;;;5015600;28;20959;-59
2022/10/07 03:12:20;;;;;;;5.65;3.65;;;15.70;82.70;;;;;;5012645;28;20022;-60
2022/10/07 03:14:48;;;;;;;5.10;3.63;;;15.70;82.70;;;;;;5014245;28;20042;-61
2022/10/07 03:17:15;;;;;;;6.07;3.90;;;15.70;82.70;;;;;;5012541;28;20056;-59
2022/10/07 03:19:41;;;;;;;5.93;4.18;;;15.70;82.60;;;;;;5016348;28;20080;-61
2022/10/07 03:22:07;;;;;;;5.13;3.65;;;15.70;82.60;;;;;;5011745;28;20495;-60
2022/10/07 03:24:33;;;;;;;6.78;4.43;;;15.70;82.50;;;;;;5014877;28;20025;-60
2022/10/07 03:26:58;;;;;;;7.32;3.90;;;15.70;82.50;;;;;;5012731;28;20045;-60
2022/10/07 03:29:25;;;;;;;5.30;3.60;;;15.70;82.50;;;;;;5011438;28;20065;-61
2022/10/07 03:31:53;;;;;;;4.10;3.70;;;15.70;82.40;;;;;;5014568;28;20762;-59
2022/10/07 03:34:19;;;;;;;5.53;3.35;;;15.70;82.30;;;;;;5015423;28;20493;-59
2022/10/07 03:36:45;;;;;;;6.60;3.47;;;15.70;82.30;;;;;;5016105;28;20042;-60
2022/10/07 03:39:11;;;;;;;4.65;3.50;;;15.70;82.20;;;;;;5012618;28;20046;-60
2022/10/07 03:41:36;;;;;;;4.93;3.70;;;15.70;82.10;;;;;;5014335;28;20609;-61
2022/10/07 03:44:02;;;;;;;5.68;3.78;;;15.70;82.10;;;;;;5013500;28;20449;-60
2022/10/07 03:46:28;;;;;;;4.22;3.65;;;15.60;82.00;;;;;;5013262;28;20028;-60
2022/10/07 03:48:53;;;;;;;7.25;4.45;;;15.60;82.00;;;;;;5013025;28;20497;-59
2022/10/07 03:51:19;;;;;;;6.45;4.78;;;15.60;82.00;;;;;;5013143;28;20065;-60
2022/10/07 03:53:45;;;;;;;8.57;6.55;;;15.60;82.10;;;;;;5014512;28;20417;-60
2022/10/07 03:56:10;;;;;;;11.73;7.95;;;15.60;82.20;;;;;;5016281;28;20468;-61
2022/10/07 03:58:37;;;;;;;9.85;7.18;;;15.50;82.30;;;;;;5014390;28;20044;-61
2022/10/07 04:01:08;;;;;;;15.50;7.40;;;15.50;82.40;;;;;;5014316;28;20508;-60
2022/10/07 04:03:33;;;;;;;10.07;6.53;;;15.50;82.30;;;;;;5013559;28;20037;-61
2022/10/07 04:06:00;;;;;;;9.02;6.43;;;15.50;82.20;;;;;;5014152;28;20034;-61
2022/10/07 04:08:27;;;;;;;9.70;5.70;;;15.50;82.30;;;;;;5008602;28;20460;-61
2022/10/07 04:10:53;;;;;;;6.65;4.93;;;15.50;82.40;;;;;;5011385;28;20069;-56
2022/10/07 04:13:18;;;;;;;10.13;4.43;;;15.50;82.40;;;;;;5011807;28;20398;-57
2022/10/07 04:15:44;;;;;;;5.50;4.50;;;15.40;82.30;;;;;;5013894;28;20030;-60
2022/10/07 04:18:10;;;;;;;10.57;4.43;;;15.40;82.40;;;;;;5012776;28;20045;-60
2022/10/07 04:20:37;;;;;;;4.85;4.38;;;15.30;82.40;;;;;;5013206;28;20045;-58
2022/10/07 04:23:03;;;;;;;5.80;4.88;;;15.30;82.60;;;;;;5014703;28;20068;-60
2022/10/07 04:25:37;;;;;;;6.03;4.90;;;15.20;82.70;;;;;;5012879;28;20030;-60
2022/10/07 04:28:05;;;;;;;7.82;4.60;;;15.20;82.90;;;;;;5013956;28;20042;-59
2022/10/07 04:30:33;;;;;;;7.50;4.45;;;15.20;83.10;;;;;;5012139;28;20103;-60
2022/10/07 04:33:03;;;;;;;5.65;4.38;;;15.20;83.10;;;;;;5013932;28;20513;-60
2022/10/07 04:35:29;;;;;;;5.63;4.85;;;15.20;83.30;;;;;;5012927;28;20030;-59
2022/10/07 04:37:55;;;;;;;6.57;4.75;;;15.20;83.40;;;;;;5013015;28;20045;-59
2022/10/07 04:40:22;;;;;;;7.30;4.60;;;15.20;83.40;;;;;;5011015;28;20038;-60
2022/10/07 04:45:34;;;;;;;7.45;4.93;;;15.20;83.60;;;;;;5010009;28;20460;-60
2022/10/07 04:48:01;;;;;;;12.73;5.70;;;15.10;83.70;;;;;;5016577;28;20041;-60
2022/10/07 04:50:27;;;;;;;7.65;6.22;;;15.10;83.80;;;;;;5015795;28;20049;-59
2022/10/07 04:52:53;;;;;;;9.23;6.03;;;15.10;83.90;;;;;;5015817;28;20029;-59
2022/10/07 04:55:19;;;;;;;7.65;5.68;;;15.10;84.00;;;;;;5012276;28;20512;-61
2022/10/07 04:57:44;;;;;;;10.82;7.80;;;15.10;84.00;;;;;;5016390;28;20050;-61
2022/10/07 05:00:10;;;;;;;8.65;6.88;;;15.10;84.10;;;;;;5014809;28;20037;-60
2022/10/07 05:02:36;;;;;;;7.28;5.63;;;15.10;84.20;;;;;;5017009;28;20045;-60
2022/10/07 05:05:02;;;;;;;11.10;5.97;;;15.10;84.30;;;;;;5015580;28;20517;-60
2022/10/07 05:07:28;;;;;;;6.85;5.32;;;15.10;84.40;;;;;;5016332;28;20049;-60
2022/10/07 05:09:54;;;;;;;6.93;5.22;;;15.00;84.50;;;;;;5017954;28;21130;-59
2022/10/07 05:12:19;;;;;;;6.05;4.97;;;15.00;84.50;;;;;;5013340;28;20026;-59
2022/10/07 05:14:45;;;;;;;7.63;5.38;;;15.00;84.60;;;;;;5015752;28;20538;-59
2022/10/07 05:17:12;;;;;;;6.65;4.82;;;15.00;84.60;;;;;;5016051;28;20040;-59
2022/10/07 05:19:38;;;;;;;6.65;5.43;;;15.00;84.60;;;;;;5016022;28;20454;-59
2022/10/07 05:22:04;;;;;;;11.50;5.53;;;15.10;84.60;;;;;;5015408;28;20128;-61
2022/10/07 05:24:30;;;;;;;15.88;5.95;;;15.10;84.70;;;;;;5012976;28;20069;-58
2022/10/07 05:26:55;;;;;;;8.98;5.82;;;15.10;84.70;;;;;;5014484;28;20133;-58
2022/10/07 05:29:21;;;;;;;10.63;5.63;;;15.10;84.60;;;;;;5012647;28;20060;-59
2022/10/07 05:31:48;;;;;;;10.05;5.75;;;15.10;84.50;;;;;;5016282;28;20030;-59
2022/10/07 05:34:14;;;;;;;17.58;10.05;;;15.20;84.50;;;;;;5016444;28;20041;-59
2022/10/07 05:36:41;;;;;;;46.03;28.45;;;15.20;84.40;;;;;;5013962;28;20184;-60
2022/10/07 05:39:07;;;;;;;31.85;21.63;;;15.20;84.30;;;;;;5017246;28;20034;-59
2022/10/07 05:41:32;;;;;;;16.70;12.10;;;15.20;84.30;;;;;;5015367;28;20386;-60
2022/10/07 05:43:59;;;;;;;14.75;10.48;;;15.20;84.20;;;;;;5016930;28;20045;-59
2022/10/07 05:46:24;;;;;;;16.50;9.60;;;15.20;84.10;;;;;;5015969;28;20041;-59
2022/10/07 05:48:52;;;;;;;13.60;9.13;;;15.10;84.00;;;;;;5014480;28;20041;-61
2022/10/07 05:51:22;;;;;;;16.17;8.60;;;15.30;84.10;;;;;;5015242;28;20536;-60
2022/10/07 05:53:51;;;;;;;14.75;7.55;;;15.30;84.10;;;;;;5014391;28;20064;-61
2022/10/07 05:56:21;;;;;;;12.52;7.30;;;15.30;84.10;;;;;;5017628;28;20116;-61
2022/10/07 05:58:51;;;;;;;10.23;6.47;;;15.30;84.00;;;;;;5016576;28;20081;-59
2022/10/07 06:01:19;;;;;;;12.40;6.07;;;15.30;84.10;;;;;;5018249;28;20030;-60
2022/10/07 06:03:53;;;;;;;12.48;5.63;;;15.40;84.10;;;;;;5016354;28;20038;-59
2022/10/07 06:06:19;;;;;;;7.45;5.88;;;15.40;84.10;;;;;;5017365;28;20129;-59
2022/10/07 06:08:46;;;;;;;10.35;5.72;;;15.40;84.00;;;;;;5016054;28;20408;-59
2022/10/07 06:14:15;;;;;;;13.70;6.68;;;15.30;84.00;;;;;;4996367;28;20100;-60
2022/10/07 06:16:41;;;;;;;15.27;8.95;;;15.40;84.00;;;;;;5010817;28;20045;-59
2022/10/07 06:19:21;;;;;;;17.02;9.48;;;15.40;84.00;;;;;;5014609;28;20046;-60
2022/10/07 06:21:47;;;;;;;20.65;11.20;;;15.40;84.00;;;;;;5018309;28;20578;-58
2022/10/07 06:24:12;;;;;;;20.42;12.55;;;15.40;84.00;;;;;;5013289;28;20033;-60
2022/10/07 06:26:38;;;;;;;15.60;10.77;;;15.40;84.00;;;;;;5014241;28;20428;-61
2022/10/07 06:29:03;;;;;;;11.20;7.95;;;15.50;84.10;;;;;;5013876;28;20042;-61
2022/10/07 06:31:29;;;;;;;14.60;7.78;;;15.50;84.00;;;;;;5016065;28;20037;-59
2022/10/07 06:33:54;;;;;;;15.95;10.18;;;15.50;84.00;;;;;;5014193;28;20045;-59
2022/10/07 06:36:20;;;;;;;13.98;8.18;;;15.50;84.10;;;;;;5015602;28;20037;-60
2022/10/07 06:38:47;;;;;;;11.35;7.15;;;15.50;84.00;;;;;;5013336;28;20141;-59
2022/10/07 06:41:14;;;;;;;11.40;7.28;;;15.50;84.00;;;;;;5014414;28;20099;-59
2022/10/07 06:43:40;;;;;;;10.43;6.97;;;15.50;84.00;;;;;;5013097;28;20100;-60
2022/10/07 06:46:08;;;;;;;12.00;6.70;;;15.60;84.00;;;;;;5016276;28;20034;-60
2022/10/07 06:48:34;;;;;;;9.85;7.20;;;15.60;84.00;;;;;;5014909;28;20030;-59
2022/10/07 06:51:04;;;;;;;10.70;7.40;;;15.60;83.90;;;;;;5000957;28;20037;-59
2022/10/07 06:53:31;;;;;;;13.10;7.38;;;15.60;83.90;;;;;;5002115;28;20505;-60
2022/10/07 06:56:00;;;;;;;11.60;7.32;;;15.60;83.90;;;;;;5009420;28;20045;-60
2022/10/07 06:58:26;;;;;;;8.20;7.18;;;15.60;84.00;;;;;;5010405;28;20125;-60
2022/10/07 07:00:56;;;;;;;12.20;7.30;;;15.60;83.90;;;;;;5010514;28;20045;-60
2022/10/07 07:03:23;;;;;;;10.55;7.22;;;15.70;84.00;;;;;;5008700;28;20184;-59
2022/10/07 07:05:50;;;;;;;8.23;7.25;;;15.60;83.90;;;;;;5008576;28;20044;-58
2022/10/07 07:08:17;;;;;;;12.75;7.55;;;15.70;83.90;;;;;;5011482;28;20551;-59
2022/10/07 07:10:43;;;;;;;9.02;7.50;;;15.70;84.00;;;;;;5008847;28;20042;-59
2022/10/07 07:13:10;;;;;;;10.77;8.10;;;15.70;84.00;;;;;;5016568;28;20052;-60
2022/10/07 07:15:36;;;;;;;12.13;8.43;;;15.70;83.90;;;;;;5010216;28;20160;-61
2022/10/07 07:18:04;;;;;;;13.95;9.43;;;15.80;84.00;;;;;;5011378;28;20115;-61
2022/10/07 07:20:36;;;;;;;17.48;9.65;;;15.70;84.00;;;;;;5009826;28;20124;-58
2022/10/07 07:23:03;;;;;;;17.45;10.32;;;15.80;84.10;;;;;;5015362;28;20132;-58
2022/10/07 07:25:30;;;;;;;15.38;9.73;;;15.80;84.20;;;;;;5012331;28;20048;-59
2022/10/07 07:28:00;;;;;;;15.73;10.38;;;15.90;84.20;;;;;;5010206;28;20037;-60
2022/10/07 07:30:30;;;;;;;17.48;9.95;;;15.90;84.10;;;;;;5011527;28;20037;-59
2022/10/07 07:32:56;;;;;;;17.20;10.77;;;15.90;85.00;;;;;;5006245;28;20111;-61
2022/10/07 07:35:24;;;;;;;17.30;11.15;;;15.90;84.10;;;;;;5013464;28;20034;-60
2022/10/07 07:37:49;;;;;;;16.20;10.27;;;16.00;84.10;;;;;;5013663;28;20061;-59
2022/10/07 07:40:16;;;;;;;16.58;11.23;;;16.00;84.10;;;;;;5016738;28;20065;-60
2022/10/07 07:42:43;;;;;;;20.70;11.10;;;16.00;84.10;;;;;;5016704;28;20404;-59
2022/10/07 07:45:09;;;;;;;17.73;11.38;;;16.10;84.10;;;;;;5012786;28;20060;-60
2022/10/07 07:47:35;;;;;;;19.83;12.60;;;16.10;84.10;;;;;;5014651;28;21020;-60
2022/10/07 07:50:02;;;;;;;16.30;12.25;;;16.10;84.10;;;;;;5016045;28;20462;-60
2022/10/07 07:52:28;;;;;;;18.63;12.82;;;16.20;84.10;;;;;;5014849;28;20113;-58
2022/10/07 07:54:57;;;;;;;21.40;14.30;;;16.30;84.00;;;;;;5012280;28;20128;-60
2022/10/07 07:57:23;;;;;;;20.05;14.02;;;16.30;83.80;;;;;;5015219;28;20038;-60
2022/10/07 07:59:49;;;;;;;20.75;13.77;;;16.30;83.60;;;;;;5016527;28;20449;-59
2022/10/07 08:02:15;;;;;;;21.35;14.30;;;16.40;83.60;;;;;;5010162;28;20057;-57
2022/10/07 08:04:41;;;;;;;23.38;14.68;;;16.40;83.50;;;;;;5012717;28;20029;-60
2022/10/07 08:07:06;;;;;;;20.08;14.55;;;16.40;83.50;;;;;;5016047;28;20409;-59
2022/10/07 08:09:32;;;;;;;19.65;15.05;;;16.40;83.60;;;;;;5012594;28;20112;-61
2022/10/07 08:11:58;;;;;;;21.42;14.57;;;16.40;83.60;;;;;;5010944;28;20049;-61
2022/10/07 08:14:23;;;;;;;23.05;15.43;;;16.40;83.60;;;;;;5012658;28;20030;-59
2022/10/07 08:16:50;;;;;;;23.10;15.18;;;16.50;83.70;;;;;;5013768;28;20397;-61
2022/10/07 08:19:16;;;;;;;21.48;15.18;;;16.50;83.60;;;;;;5012087;28;20120;-61
2022/10/07 08:21:42;;;;;;;23.67;14.45;;;16.50;83.50;;;;;;5015239;28;20715;-62
2022/10/07 08:24:11;;;;;;;21.83;15.45;;;16.50;83.40;;;;;;5012782;28;20034;-61
2022/10/07 08:26:37;;;;;;;23.77;15.35;;;16.50;83.40;;;;;;5013469;28;20033;-58
2022/10/07 08:29:03;;;;;;;25.65;14.68;;;16.60;84.20;;;;;;5014977;28;20053;-58
2022/10/07 08:31:29;;;;;;;21.17;14.82;;;16.60;83.30;;;;;;5011680;28;20038;-59
2022/10/07 08:33:58;;;;;;;21.35;15.02;;;16.60;83.30;;;;;;5017365;28;20141;-60
2022/10/07 08:36:26;;;;;;;23.38;14.80;;;16.60;83.40;;;;;;5011630;28;20042;-62
2022/10/07 08:38:52;;;;;;;21.83;15.23;;;16.70;83.30;;;;;;5016521;28;20041;-60
2022/10/07 08:41:17;;;;;;;26.35;14.70;;;16.70;83.10;;;;;;5016955;28;20034;-61
2022/10/07 08:43:47;;;;;;;18.20;13.68;;;16.70;82.90;;;;;;5019560;28;20520;-59
2022/10/07 08:46:22;;;;;;;24.00;13.70;;;16.70;82.80;;;;;;5019962;28;20041;-61
2022/10/07 08:48:54;;;;;;;24.20;13.98;;;16.70;82.60;;;;;;5015746;28;20097;-60
2022/10/07 08:51:47;;;;;;;22.58;13.75;;;16.70;82.60;;;;;;5018410;28;20091;-59
2022/10/07 08:54:15;;;;;;;22.65;14.02;;;16.70;82.80;;;;;;5019336;28;20052;-59
2022/10/07 08:56:42;;;;;;;18.35;13.25;;;16.70;82.70;;;;;;5016912;28;20037;-60
2022/10/07 08:59:21;;;;;;;18.60;13.32;;;16.70;82.80;;;;;;5014243;28;20038;-61
2022/10/07 09:01:59;;;;;;;17.65;12.55;;;16.80;82.90;;;;;;5015824;28;20515;-59
2022/10/07 09:05:00;;;;;;;17.08;11.65;;;16.80;82.90;;;;;;5011743;28;20043;-60
2022/10/07 09:07:46;;;;;;;16.98;10.25;;;16.90;82.90;;;;;;5012202;28;20132;-59
2022/10/07 09:10:37;;;;;;;14.80;10.07;;;16.80;82.40;;;;;;5016983;28;20076;-59
2022/10/07 09:13:17;;;;;;;12.45;9.55;;;16.80;81.90;;;;;;5009760;28;20413;-60
2022/10/07 09:15:52;;;;;;;12.82;9.73;;;16.90;82.10;;;;;;5018792;28;20084;-59
2022/10/07 09:18:17;;;;;;;;;;;16.70;82.10;;;;;;5013896;28;20042;-58
2022/10/07 09:20:50;;;;;;;12.20;9.00;;;16.90;82.30;;;;;;5015075;28;19983;-61
2022/10/07 09:23:18;;;;;;;12.80;9.57;;;16.90;82.20;;;;;;5016871;28;20096;-60
2022/10/07 09:25:43;;;;;;;17.00;9.45;;;16.90;82.10;;;;;;5018436;28;20034;-60
2022/10/07 09:28:15;;;;;;;11.70;9.05;;;17.00;82.20;;;;;;5011487;28;20044;-60
2022/10/07 09:30:41;;;;;;;14.20;9.45;;;17.00;81.90;;;;;;5015573;28;20026;-60
2022/10/07 09:33:17;;;;;;;14.05;9.75;;;16.90;81.70;;;;;;5016048;28;20060;-61
2022/10/07 09:35:56;;;;;;;15.18;9.77;;;16.90;81.70;;;;;;5013821;28;20125;-58
2022/10/07 09:38:34;;;;;;;13.43;9.45;;;16.90;81.80;;;;;;5017629;28;20038;-60
2022/10/07 09:41:34;;;;;;;11.50;8.98;;;17.00;81.80;;;;;;5016621;28;20046;-60
2022/10/07 09:43:59;;;;;;;13.15;9.35;;;17.00;81.70;;;;;;5010581;28;20117;-61
2022/10/07 09:46:46;;;;;;;12.35;9.32;;;17.00;81.80;;;;;;5016680;28;20129;-59
2022/10/07 09:49:26;;;;;;;12.52;9.18;;;17.10;81.70;;;;;;5016512;28;20037;-61
2022/10/07 09:52:04;;;;;;;11.85;8.98;;;17.00;81.70;;;;;;5013398;28;20048;-59
2022/10/07 09:54:32;;;;;;;12.55;9.27;;;17.10;81.70;;;;;;5017452;28;20091;-59
2022/10/07 09:57:02;;;;;;;16.02;9.48;;;17.10;81.70;;;;;;5015574;28;20493;-59
2022/10/07 09:59:29;;;;;;;13.05;9.18;;;17.10;81.60;;;;;;5017201;28;20034;-61
2022/10/07 10:02:01;;;;;;;13.40;9.60;;;17.10;82.50;;;;;;5012826;28;20048;-61
2022/10/07 10:04:33;;;;;;;11.10;8.88;;;17.10;81.70;;;;;;5014862;28;20125;-59
2022/10/07 10:07:16;;;;;;;10.38;8.38;;;17.10;81.90;;;;;;5014803;28;20415;-61
2022/10/07 10:09:49;;;;;;;10.43;8.82;;;17.10;81.90;;;;;;5016094;28;20835;-59
2022/10/07 10:12:15;;;;;;;12.50;9.18;;;17.20;81.90;;;;;;5013404;28;20034;-61
2022/10/07 10:14:47;;;;;;;12.80;8.85;;;17.20;81.70;;;;;;5012204;28;20401;-61
2022/10/07 10:17:27;;;;;;;10.40;8.15;;;17.20;81.70;;;;;;5011508;28;22310;-58
2022/10/07 10:19:54;;;;;;;12.45;8.95;;;17.20;81.00;;;;;;5010101;28;20480;-60
2022/10/07 10:22:29;;;;;;;12.40;9.23;;;17.30;81.10;;;;;;5013556;28;20062;-59
2022/10/07 10:27:56;;;;;;;12.02;8.88;;;17.30;80.80;;;;;;5017665;28;19924;-61
2022/10/07 10:30:23;;;;;;;12.48;9.10;;;17.30;80.60;;;;;;5014134;28;20116;-60
2022/10/07 10:33:03;;;;;;;13.23;10.15;;;17.30;80.80;;;;;;5010215;28;20043;-61
2022/10/07 10:35:56;;;;;;;14.95;10.45;;;17.30;81.70;;;;;;5015177;28;20505;-60
2022/10/07 10:38:32;;;;;;;13.38;9.70;;;17.30;80.90;;;;;;5003420;28;20034;-60
2022/10/07 10:41:12;;;;;;;12.77;9.50;;;17.30;80.80;;;;;;5018391;28;20042;-60
2022/10/07 10:44:02;;;;;;;13.32;9.70;;;17.30;80.80;;;;;;5016284;28;20421;-61
2022/10/07 10:46:56;;;;;;;12.40;9.27;;;17.30;80.70;;;;;;5019705;28;20053;-59
2022/10/07 10:49:27;;;;;;;12.30;10.32;;;17.30;80.80;;;;;;5019864;28;20065;-60
2022/10/07 10:52:13;;;;;;;15.98;10.10;;;17.30;80.70;;;;;;5017205;28;20104;-59
2022/10/07 10:54:42;;;;;;;;;;;17.30;80.80;;;;;;5018995;28;20103;-61
2022/10/07 10:57:30;;;;;;;11.02;8.68;;;17.30;80.80;;;;;;5016888;28;19913;-61
2022/10/07 11:00:06;;;;;;;12.20;9.57;;;17.30;80.70;;;;;;5017133;28;20494;-60
2022/10/07 11:02:38;;;;;;;12.45;9.70;;;17.20;80.60;;;;;;5017217;28;20038;-60
2022/10/07 11:05:05;;;;;;;11.38;9.18;;;17.20;80.60;;;;;;5018257;28;20529;-59
2022/10/07 11:07:35;;;;;;;11.88;9.55;;;17.30;80.80;;;;;;5016643;28;20155;-61
2022/10/07 11:10:21;;;;;;;12.60;9.57;;;17.30;80.80;;;;;;5016523;28;20239;-60
2022/10/07 11:13:05;;;;;;;15.40;9.55;;;17.20;80.60;;;;;;5014680;28;20076;-59
2022/10/07 11:15:40;;;;;;;12.38;9.25;;;17.20;80.60;;;;;;5017135;28;20107;-58
2022/10/07 11:18:22;;;;;;;11.35;9.57;;;17.20;80.60;;;;;;5015752;28;20382;-59
2022/10/07 11:20:49;;;;;;;16.15;10.05;;;17.20;80.60;;;;;;5018168;28;20045;-61
2022/10/07 11:23:14;;;;;;;12.10;9.60;;;17.20;80.60;;;;;;5016299;28;20034;-61
2022/10/07 11:25:46;;;;;;;12.00;9.02;;;17.30;80.60;;;;;;5017463;28;20080;-61
2022/10/07 11:28:26;;;;;;;11.55;9.25;;;17.20;80.30;;;;;;5017239;28;20111;-60
2022/10/07 11:31:21;;;;;;;11.90;9.48;;;17.20;80.20;;;;;;5017022;28;20041;-58
2022/10/07 11:34:23;;;;;;;12.00;8.77;;;17.20;80.30;;;;;;4995708;28;20037;-61
2022/10/07 11:37:01;;;;;;;10.95;9.02;;;17.20;80.40;;;;;;5015726;28;20441;-60
2022/10/07 11:39:28;;;;;;;12.93;9.30;;;17.20;80.30;;;;;;5018609;28;20072;-61
2022/10/07 11:42:06;;;;;;;13.25;9.10;;;17.20;80.10;;;;;;5018465;28;20049;-59
2022/10/07 11:44:43;;;;;;;13.20;9.18;;;17.20;80.10;;;;;;5016109;28;20056;-60
2022/10/07 11:47:16;;;;;;;10.35;8.65;;;17.20;80.10;;;;;;5016041;28;20125;-59
2022/10/07 11:49:56;;;;;;;12.70;9.30;;;17.10;80.30;;;;;;5017129;28;20120;-58
2022/10/07 11:52:28;;;;;;;11.45;8.52;;;17.20;80.50;;;;;;5015524;28;20032;-60
2022/10/07 11:54:59;;;;;;;11.68;8.70;;;17.10;80.20;;;;;;5017368;28;20087;-59
2022/10/07 11:57:30;;;;;;;15.15;9.57;;;17.20;80.20;;;;;;5014925;28;21070;-60
2022/10/07 11:59:57;;;;;;;10.90;9.38;;;17.10;80.20;;;;;;5015866;28;20100;-59
2022/10/07 12:02:29;;;;;;;12.52;9.43;;;17.10;80.20;;;;;;5014454;28;20096;-61
2022/10/07 12:05:01;;;;;;;10.60;9.00;;;17.10;80.30;;;;;;5015028;28;20045;-61
2022/10/07 12:07:41;;;;;;;12.65;9.55;;;17.10;80.30;;;;;;5016512;28;20424;-61
2022/10/07 12:10:19;;;;;;;11.75;8.75;;;17.10;80.50;;;;;;5016550;28;20037;-59
2022/10/07 12:12:44;;;;;;;11.25;8.52;;;17.10;80.30;;;;;;5015089;28;20034;-60
2022/10/07 12:15:29;;;;;;;13.25;9.80;;;17.10;80.50;;;;;;5016325;28;20034;-59
2022/10/07 12:18:03;;;;;;;12.40;9.40;;;17.10;80.20;;;;;;5015329;28;20052;-61
2022/10/07 12:20:41;;;;;;;12.38;9.55;;;17.10;80.30;;;;;;5016282;28;20099;-59
2022/10/07 12:23:25;;;;;;;12.32;9.48;;;17.20;80.30;;;;;;5015580;28;20037;-58
2022/10/07 12:26:01;;;;;;;12.95;9.38;;;17.10;80.40;;;;;;5016370;28;20037;-59
2022/10/07 12:28:33;;;;;;;13.45;10.10;;;17.10;80.50;;;;;;5015527;28;20048;-60
2022/10/07 12:31:01;;;;;;;11.50;9.48;;;17.10;80.60;;;;;;5017013;28;20038;-59
2022/10/07 12:33:32;;;;;;;14.23;8.85;;;17.10;80.80;;;;;;5016985;28;20046;-59
2022/10/07 12:36:19;;;;;;;11.05;8.65;;;17.10;80.80;;;;;;5014836;28;20038;-61
2022/10/07 12:39:11;;;;;;;11.25;9.32;;;17.10;81.00;;;;;;5015771;28;20038;-59
2022/10/07 12:41:38;;;;;;;11.05;8.57;;;17.10;80.60;;;;;;5015739;28;20034;-60
2022/10/07 12:44:22;;;;;;;13.80;9.60;;;17.20;80.70;;;;;;5013728;28;20048;-60
2022/10/07 12:46:59;;;;;;;12.95;8.82;;;17.20;80.30;;;;;;5016157;28;20045;-61
2022/10/07 12:49:49;;;;;;;11.88;7.78;;;17.20;80.30;;;;;;5016077;28;20068;-61
2022/10/07 12:52:20;;;;;;;10.13;8.15;;;17.20;80.30;;;;;;5011693;28;20022;-61
2022/10/07 12:54:54;;;;;;;11.30;8.55;;;17.30;80.50;;;;;;5013319;28;20033;-61
2022/10/07 12:57:22;;;;;;;9.90;8.55;;;17.30;80.50;;;;;;5015920;28;20033;-59
2022/10/07 13:00:14;;;;;;;12.50;9.23;;;17.30;80.30;;;;;;5015018;28;20523;-61
2022/10/07 13:03:07;;;;;;;11.63;8.70;;;17.40;80.10;;;;;;5015909;28;20049;-61
2022/10/07 13:05:54;;;;;;;11.10;8.80;;;17.40;80.00;;;;;;5016942;28;20080;-61
2022/10/07 13:09:03;;;;;;;10.15;8.75;;;17.40;80.00;;;;;;5016818;28;20040;-60